createdAt,value
2018-11-14T00:00:38.827Z,27.63
2018-11-14T00:03:09.142Z,19.75
2018-11-14T00:05:38.669Z,23.47
2018-11-14T00:08:08.049Z,32.07
2018-11-14T00:10:37.726Z,33.67
2018-11-14T00:13:07.103Z,29.52
2018-11-14T00:15:36.538Z,21.12
2018-11-14T00:18:05.986Z,24.65
2018-11-14T00:20:35.624Z,32.83
2018-11-14T00:23:05.019Z,30.70
2018-11-14T00:25:34.541Z,35.07
2018-11-14T00:28:03.992Z,17.40
2018-11-14T00:30:33.451Z,32.28
2018-11-14T00:33:02.839Z,23.47
2018-11-14T00:35:32.261Z,37.53
2018-11-14T00:38:06.466Z,17.07
2018-11-14T00:40:35.814Z,23.67
2018-11-14T00:43:05.563Z,18.10
2018-11-14T00:45:34.947Z,47.97
2018-11-14T00:48:04.362Z,37.47
2018-11-14T00:50:33.710Z,17.57
2018-11-14T00:53:04.259Z,23.17
2018-11-14T00:55:33.565Z,26.53
2018-11-14T00:58:02.886Z,29.67
2018-11-14T01:00:32.524Z,26.13
2018-11-14T01:03:01.922Z,20.90
2018-11-14T01:05:31.424Z,30.47
2018-11-14T01:08:01.116Z,28.53
2018-11-14T01:10:30.590Z,34.03
2018-11-14T01:13:00.042Z,26.55
2018-11-14T01:15:30.887Z,29.97
2018-11-14T01:18:00.299Z,18.37
2018-11-14T01:20:29.657Z,43.23
2018-11-14T01:22:59.986Z,19.07
2018-11-14T01:25:29.408Z,35.70
2018-11-14T01:27:58.783Z,19.63
2018-11-14T01:30:28.536Z,28.20
2018-11-14T01:32:57.995Z,25.20
2018-11-14T01:35:27.298Z,24.77
2018-11-14T01:37:56.712Z,35.73
2018-11-14T01:40:26.497Z,27.83
2018-11-14T01:42:57.077Z,40.07
2018-11-14T01:45:26.533Z,32.03
2018-11-14T01:47:55.931Z,35.00
2018-11-14T01:50:25.437Z,35.97
2018-11-14T01:52:54.785Z,29.90
2018-11-14T01:55:24.126Z,39.73
2018-11-14T01:57:53.590Z,29.00
2018-11-14T02:00:24.404Z,36.90
2018-11-14T02:02:54.121Z,20.17
2018-11-14T02:05:23.533Z,48.17
2018-11-14T02:07:54.924Z,18.67
2018-11-14T02:10:24.376Z,33.70
2018-11-14T02:12:53.849Z,28.50
2018-11-14T02:15:24.184Z,29.95
2018-11-14T02:17:53.990Z,27.13
2018-11-14T02:20:23.492Z,30.23
2018-11-14T02:22:53.080Z,48.03
2018-11-14T02:25:22.438Z,30.10
2018-11-14T02:27:51.765Z,18.32
2018-11-14T02:30:22.758Z,26.75
2018-11-14T02:32:52.095Z,27.48
2018-11-14T02:35:21.519Z,26.77
2018-11-14T02:37:51.039Z,33.15
2018-11-14T02:40:21.541Z,41.05
2018-11-14T02:42:51.020Z,26.53
2018-11-14T02:45:20.446Z,34.27
2018-11-14T02:47:50.084Z,31.90
2018-11-14T02:50:19.726Z,43.30
2018-11-14T02:52:55.884Z,23.67
2018-11-14T02:55:25.259Z,50.35
2018-11-14T02:57:54.637Z,36.93
2018-11-14T03:00:24.085Z,31.20
2018-11-14T03:02:53.445Z,22.03
2018-11-14T03:05:22.822Z,50.52
2018-11-14T03:07:52.223Z,30.00
2018-11-14T03:10:22.271Z,33.18
2018-11-14T03:12:51.628Z,30.20
2018-11-14T03:15:22.705Z,25.27
2018-11-14T03:17:52.079Z,32.33
2018-11-14T03:20:22.185Z,40.65
2018-11-14T03:22:51.602Z,28.70
2018-11-14T03:25:21.075Z,38.83
2018-11-14T03:27:50.503Z,40.40
2018-11-14T03:30:19.856Z,28.80
2018-11-14T03:32:49.115Z,27.90
2018-11-14T03:35:18.541Z,28.67
2018-11-14T03:37:47.893Z,31.17
2018-11-14T03:40:17.886Z,26.23
2018-11-14T03:42:47.337Z,33.57
2018-11-14T03:45:16.749Z,34.70
2018-11-14T03:47:46.094Z,51.93
2018-11-14T03:50:15.551Z,26.97
2018-11-14T03:52:44.895Z,25.77
2018-11-14T03:55:14.378Z,39.93
2018-11-14T03:57:43.767Z,39.23
2018-11-14T04:00:14.979Z,21.13
2018-11-14T04:02:45.627Z,28.87
2018-11-14T04:05:15.006Z,34.37
2018-11-14T04:07:44.333Z,18.80
2018-11-14T04:10:14.572Z,25.33
2018-11-14T04:12:44.241Z,28.77
2018-11-14T04:15:14.543Z,28.70
2018-11-14T04:17:44.082Z,20.52
2018-11-14T04:20:15.761Z,33.58
2018-11-14T04:22:45.652Z,31.63
2018-11-14T04:25:19.385Z,28.83
2018-11-14T04:27:49.543Z,33.13
2018-11-14T04:30:20.305Z,21.73
2018-11-14T04:32:49.809Z,15.20
2018-11-14T04:35:20.126Z,32.55
2018-11-14T04:37:49.670Z,27.35
2018-11-14T04:40:20.961Z,48.70
2018-11-14T04:42:50.396Z,26.27
2018-11-14T04:45:26.644Z,25.45
2018-11-14T04:47:56.158Z,27.75
2018-11-14T04:50:26.575Z,46.50
2018-11-14T04:52:56.600Z,34.10
2018-11-14T04:55:26.951Z,33.20
2018-11-14T04:57:56.417Z,25.20
2018-11-14T05:00:26.851Z,29.20
2018-11-14T05:02:56.237Z,36.93
2018-11-14T05:05:26.788Z,31.37
2018-11-14T05:07:56.162Z,28.75
2018-11-14T05:10:26.717Z,31.62
2018-11-14T05:12:57.417Z,34.63
2018-11-14T05:15:26.802Z,45.50
2018-11-14T05:17:56.399Z,41.58
2018-11-14T05:20:25.890Z,20.62
2018-11-14T05:22:55.365Z,35.45
2018-11-14T05:25:24.725Z,30.37
2018-11-14T05:27:54.105Z,40.00
2018-11-14T05:30:24.316Z,20.10
2018-11-14T05:32:53.999Z,29.32
2018-11-14T05:35:23.346Z,30.55
2018-11-14T05:37:52.763Z,50.98
2018-11-14T05:40:22.987Z,35.83
2018-11-14T05:42:52.929Z,58.80
2018-11-14T05:45:24.673Z,34.88
2018-11-14T05:47:54.372Z,41.33
2018-11-14T05:50:24.179Z,38.15
2018-11-14T05:52:53.507Z,42.73
2018-11-14T05:55:22.883Z,25.75
2018-11-14T05:57:52.186Z,43.68
2018-11-14T06:00:25.234Z,42.70
2018-11-14T06:02:54.495Z,49.88
2018-11-14T06:05:23.839Z,33.70
2018-11-14T06:07:53.245Z,35.63
2018-11-14T06:10:22.664Z,47.10
2018-11-14T06:12:52.133Z,44.63
2018-11-14T06:15:22.180Z,42.40
2018-11-14T06:17:52.735Z,49.45
2018-11-14T06:20:22.825Z,32.30
2018-11-14T06:22:53.133Z,43.08
2018-11-14T06:25:32.763Z,47.98
2018-11-14T06:28:03.338Z,38.45
2018-11-14T06:30:33.348Z,47.23
2018-11-14T06:33:03.921Z,57.27
2018-11-14T06:35:33.384Z,59.18
2018-11-14T06:38:02.914Z,67.35
2018-11-14T06:40:32.395Z,52.53
2018-11-14T06:43:01.868Z,58.17
2018-11-14T06:45:32.616Z,58.25
2018-11-14T06:48:02.941Z,60.20
2018-11-14T06:50:32.483Z,65.55
2018-11-14T06:53:03.387Z,57.67
2018-11-14T06:55:32.995Z,61.63
2018-11-14T06:58:02.850Z,59.80
2018-11-14T07:00:33.112Z,57.33
2018-11-14T07:03:04.125Z,75.72
2018-11-14T07:05:33.696Z,63.13
2018-11-14T07:08:03.195Z,74.15
2018-11-14T07:10:34.133Z,76.05
2018-11-14T07:13:05.298Z,81.28
2018-11-14T07:15:37.020Z,76.37
2018-11-14T07:18:09.782Z,62.75
2018-11-14T07:20:43.072Z,65.92
2018-11-14T07:23:14.049Z,69.95
2018-11-14T07:25:45.621Z,69.70
2018-11-14T07:28:16.674Z,71.85
2018-11-14T07:30:49.808Z,71.57
2018-11-14T07:33:21.470Z,69.27
2018-11-14T07:35:53.218Z,60.73
2018-11-14T07:38:40.407Z,68.45
2018-11-14T07:41:15.394Z,74.05
2018-11-14T07:43:46.980Z,68.57
2018-11-14T07:46:19.000Z,57.13
2018-11-14T07:48:50.436Z,83.03
2018-11-14T07:51:23.260Z,71.37
2018-11-14T07:53:54.315Z,70.32
2018-11-14T07:56:25.412Z,72.08
2018-11-14T07:58:56.721Z,64.10
2018-11-14T08:01:28.803Z,61.95
2018-11-14T08:04:00.395Z,62.33
2018-11-14T08:06:31.040Z,61.00
2018-11-14T08:09:01.868Z,53.70
2018-11-14T08:11:33.712Z,45.30
2018-11-14T08:14:04.956Z,54.48
2018-11-14T08:16:36.922Z,55.30
2018-11-14T08:19:08.666Z,54.30
2018-11-14T08:21:40.733Z,43.95
2018-11-14T08:24:11.081Z,49.83
2018-11-14T08:26:41.704Z,57.23
2018-11-14T08:29:12.417Z,42.30
2018-11-14T08:31:44.849Z,47.20
2018-11-14T08:34:15.406Z,42.83
2018-11-14T08:36:46.616Z,56.93
2018-11-14T08:39:17.511Z,46.10
2018-11-14T08:41:48.198Z,45.80
2018-11-14T08:44:19.821Z,58.40
2018-11-14T08:46:52.521Z,50.23
2018-11-14T08:49:23.471Z,53.58
2018-11-14T08:51:54.552Z,37.28
2018-11-14T08:54:24.331Z,51.85
2018-11-14T08:56:53.882Z,43.00
2018-11-14T08:59:23.521Z,54.27
2018-11-14T09:01:52.888Z,46.83
2018-11-14T09:04:22.428Z,47.83
2018-11-14T09:06:52.032Z,49.15
2018-11-14T09:09:21.424Z,62.08
2018-11-14T09:11:50.886Z,46.45
2018-11-14T09:14:20.410Z,50.35
2018-11-14T09:16:49.902Z,43.85
2018-11-14T09:19:19.526Z,48.83
2018-11-14T09:21:49.049Z,40.37
2018-11-14T09:24:18.678Z,50.88
2018-11-14T09:26:48.259Z,42.98
2018-11-14T09:29:18.120Z,45.40
2018-11-14T09:31:48.027Z,43.33
2018-11-14T09:34:18.446Z,44.25
2018-11-14T09:36:48.481Z,45.05
2018-11-14T09:39:18.167Z,48.17
2018-11-14T09:41:47.846Z,45.33
2018-11-14T09:44:17.785Z,53.02
2018-11-14T09:46:48.038Z,46.90
2018-11-14T09:49:17.796Z,46.37
2018-11-14T09:51:47.597Z,50.15
2018-11-14T09:54:17.236Z,47.80
2018-11-14T09:56:47.159Z,51.10
2018-11-14T09:59:17.127Z,44.85
2018-11-14T10:01:46.938Z,45.98
2018-11-14T10:04:16.542Z,43.28
2018-11-14T10:06:47.536Z,42.80
2018-11-14T10:09:17.333Z,48.15
2018-11-14T10:11:47.157Z,49.90
2018-11-14T10:14:16.790Z,42.27
2018-11-14T10:16:46.588Z,42.98
2018-11-14T10:19:16.025Z,46.60
2018-11-14T10:21:45.789Z,48.50
2018-11-14T10:24:15.116Z,44.23
2018-11-14T10:26:44.533Z,49.95
2018-11-14T10:29:14.176Z,41.55
2018-11-14T10:31:43.553Z,54.20
2018-11-14T10:34:13.010Z,51.20
2018-11-14T10:36:42.431Z,42.67
2018-11-14T10:39:12.269Z,46.58
2018-11-14T10:41:41.629Z,46.90
2018-11-14T10:44:10.967Z,41.92
2018-11-14T10:46:40.400Z,57.98
2018-11-14T10:49:10.010Z,51.65
2018-11-14T10:51:39.341Z,53.10
2018-11-14T10:54:08.815Z,39.33
2018-11-14T10:56:38.263Z,50.33
2018-11-14T10:59:07.660Z,41.18
2018-11-14T11:01:42.475Z,45.73
2018-11-14T11:04:17.171Z,52.90
2018-11-14T11:06:52.024Z,51.53
2018-11-14T11:09:26.614Z,46.70
2018-11-14T11:12:01.303Z,55.45
2018-11-14T11:14:41.355Z,43.25
2018-11-14T11:17:16.472Z,48.08
2018-11-14T11:19:46.014Z,50.48
2018-11-14T11:22:16.454Z,49.15
2018-11-14T11:24:45.852Z,48.55
2018-11-14T11:27:15.856Z,47.80
2018-11-14T11:29:45.665Z,44.58
2018-11-14T11:32:15.091Z,49.53
2018-11-14T11:34:44.460Z,52.20
2018-11-14T11:37:13.925Z,52.30
2018-11-14T11:39:43.365Z,56.08
2018-11-14T11:42:13.465Z,55.78
2018-11-14T11:44:42.825Z,50.75
2018-11-14T11:47:12.356Z,50.28
2018-11-14T11:49:42.000Z,44.13
2018-11-14T11:52:11.623Z,54.07
2018-11-14T11:54:41.466Z,52.25
2018-11-14T11:57:11.043Z,51.15
2018-11-14T11:59:40.731Z,54.18
2018-11-14T12:02:10.634Z,51.23
2018-11-14T12:04:40.086Z,57.67
2018-11-14T12:07:09.857Z,68.47
2018-11-14T12:09:39.602Z,65.10
2018-11-14T12:12:09.253Z,58.57
2018-11-14T12:14:38.815Z,58.83
2018-11-14T12:17:08.510Z,59.80
2018-11-14T12:19:39.749Z,65.13
2018-11-14T12:22:09.245Z,64.53
2018-11-14T12:24:40.053Z,59.10
2018-11-14T12:27:11.388Z,62.77
2018-11-14T12:29:40.812Z,69.55
2018-11-14T12:32:10.494Z,61.20
2018-11-14T12:34:39.894Z,66.05
2018-11-14T12:37:09.271Z,76.50
2018-11-14T12:39:38.764Z,86.12
2018-11-14T12:42:08.206Z,78.67
2018-11-14T12:44:37.683Z,78.67
2018-11-14T12:47:07.174Z,68.87
2018-11-14T12:49:36.641Z,67.87
2018-11-14T12:52:06.227Z,63.23
2018-11-14T12:54:35.688Z,71.77
2018-11-14T12:57:05.421Z,68.97
2018-11-14T12:59:34.843Z,66.83
2018-11-14T13:02:04.343Z,69.10
2018-11-14T13:04:33.668Z,66.50
2018-11-14T13:07:02.990Z,72.40
2018-11-14T13:09:32.430Z,71.53
2018-11-14T13:12:01.936Z,78.20
2018-11-14T13:14:31.367Z,77.70
2018-11-14T13:17:00.840Z,92.53
2018-11-14T13:19:30.238Z,91.93
2018-11-14T13:21:59.796Z,95.60
2018-11-14T13:24:29.323Z,66.70
2018-11-14T13:26:58.720Z,74.30
2018-11-14T13:29:28.498Z,74.13
2018-11-14T13:31:57.959Z,72.30
2018-11-14T13:34:27.532Z,74.10
2018-11-14T13:36:59.133Z,80.50
2018-11-14T13:39:30.876Z,83.40
2018-11-14T13:42:00.683Z,70.70
2018-11-14T13:44:32.157Z,90.00
2018-11-14T13:47:04.069Z,76.67
2018-11-14T13:49:35.927Z,78.10
2018-11-14T13:52:07.484Z,79.20
2018-11-14T13:54:37.172Z,67.20
2018-11-14T13:57:06.674Z,72.00
2018-11-14T13:59:36.199Z,73.53
2018-11-14T14:02:06.024Z,83.07
2018-11-14T14:04:38.440Z,65.70
2018-11-14T14:07:09.218Z,69.73
2018-11-14T14:09:40.675Z,65.73
2018-11-14T14:12:10.266Z,65.20
2018-11-14T14:14:39.846Z,67.17
2018-11-14T14:17:09.328Z,65.07
2018-11-14T14:19:38.885Z,62.13
2018-11-14T14:22:08.410Z,76.17
2018-11-14T14:24:37.924Z,92.40
2018-11-14T14:27:07.441Z,70.97
2018-11-14T14:29:37.050Z,63.03
2018-11-14T14:32:06.967Z,56.50
2018-11-14T14:34:37.678Z,64.97
2018-11-14T14:37:07.263Z,58.27
2018-11-14T14:39:36.919Z,73.30
2018-11-14T14:42:06.735Z,66.57
2018-11-14T14:44:36.341Z,62.37
2018-11-14T14:47:05.944Z,61.00
2018-11-14T14:49:35.647Z,65.40
2018-11-14T14:52:05.449Z,85.93
2018-11-14T14:54:40.864Z,57.50
2018-11-14T14:57:10.360Z,66.20
2018-11-14T14:59:42.010Z,69.40
2018-11-14T15:02:11.522Z,56.37
2018-11-14T15:04:42.089Z,57.03
2018-11-14T15:08:36.094Z,52.43
2018-11-14T15:11:06.570Z,62.50
2018-11-14T15:13:35.980Z,51.60
2018-11-14T15:16:05.892Z,58.37
2018-11-14T15:18:35.624Z,60.70
2018-11-14T15:21:05.781Z,58.93
2018-11-14T15:23:35.546Z,62.20
2018-11-14T15:26:06.621Z,53.73
2018-11-14T15:28:36.392Z,74.80
2018-11-14T15:31:05.986Z,66.03
2018-11-14T15:33:35.464Z,60.43
2018-11-14T15:36:04.897Z,61.10
2018-11-14T15:38:34.247Z,67.63
2018-11-14T15:41:05.213Z,54.00
2018-11-14T15:43:35.160Z,64.73
2018-11-14T15:46:04.964Z,64.97
2018-11-14T15:48:35.145Z,64.30
2018-11-14T15:51:04.835Z,58.07
2018-11-14T15:53:35.342Z,69.17
2018-11-14T15:56:08.393Z,65.67
2018-11-14T15:58:38.268Z,62.43
2018-11-14T16:01:07.810Z,63.90
2018-11-14T16:03:37.266Z,61.07
2018-11-14T16:06:06.846Z,63.80
2018-11-14T16:08:36.453Z,67.03
2018-11-14T16:11:07.425Z,65.20
2018-11-14T16:13:37.750Z,68.67
2018-11-14T16:16:07.211Z,82.35
2018-11-14T16:18:36.788Z,70.90
2018-11-14T16:21:07.861Z,76.47
2018-11-14T16:23:38.346Z,73.23
2018-11-14T16:26:08.647Z,66.73
2018-11-14T16:28:39.317Z,72.03
2018-11-14T16:31:08.813Z,71.07
2018-11-14T16:33:39.080Z,68.27
2018-11-14T16:36:10.746Z,73.28
2018-11-14T16:38:40.279Z,75.75
2018-11-14T16:41:10.607Z,76.90
2018-11-14T16:43:40.632Z,65.07
2018-11-14T16:46:11.259Z,76.00
2018-11-14T16:48:40.859Z,83.87
2018-11-14T16:51:10.869Z,71.90
2018-11-14T16:53:40.338Z,71.23
2018-11-14T16:56:10.001Z,72.50
2018-11-14T16:58:41.308Z,83.62
2018-11-14T17:01:11.990Z,73.05
2018-11-14T17:03:42.960Z,72.62
2018-11-14T17:06:13.477Z,88.25
2018-11-14T17:08:43.094Z,67.42
2018-11-14T17:11:12.543Z,70.37
2018-11-14T17:13:44.350Z,68.25
2018-11-14T17:16:15.578Z,79.60
2018-11-14T17:18:45.016Z,59.93
2018-11-14T17:21:15.732Z,72.70
2018-11-14T17:23:45.874Z,77.97
2018-11-14T17:26:16.492Z,72.10
2018-11-14T17:28:46.334Z,68.87
2018-11-14T17:31:15.750Z,66.53
2018-11-14T17:33:47.625Z,75.53
2018-11-14T17:36:17.358Z,73.83
2018-11-14T17:38:46.925Z,59.33
2018-11-14T17:41:17.040Z,84.87
2018-11-14T17:43:47.630Z,71.42
2018-11-14T17:46:17.675Z,68.43
2018-11-14T17:48:48.626Z,64.47
2018-11-14T17:51:18.118Z,72.97
2018-11-14T17:53:47.621Z,58.87
2018-11-14T17:56:18.742Z,68.47
2018-11-14T17:58:49.398Z,60.50
2018-11-14T18:01:20.264Z,66.27
2018-11-14T18:03:49.941Z,69.80
2018-11-14T18:06:19.350Z,63.13
2018-11-14T18:08:49.225Z,56.10
2018-11-14T18:11:18.865Z,72.37
2018-11-14T18:13:48.531Z,62.77
2018-11-14T18:16:18.285Z,56.33
2018-11-14T18:18:48.452Z,56.30
2018-11-14T18:21:18.469Z,71.27
2018-11-14T18:23:50.085Z,63.03
2018-11-14T18:26:20.409Z,60.33
2018-11-14T18:28:51.507Z,55.80
2018-11-14T18:31:22.934Z,62.37
2018-11-14T18:33:53.542Z,59.57
2018-11-14T18:36:24.150Z,55.33
2018-11-14T18:38:56.594Z,52.20
2018-11-14T18:41:27.106Z,56.87
2018-11-14T18:43:57.319Z,72.43
2018-11-14T18:46:28.652Z,58.30
2018-11-14T18:48:59.785Z,55.60
2018-11-14T18:51:30.799Z,62.47
2018-11-14T18:54:01.000Z,56.80
2018-11-14T18:56:31.864Z,60.77
2018-11-14T18:59:01.605Z,65.73
2018-11-14T19:01:33.367Z,78.90
2018-11-14T19:04:03.399Z,62.77
2018-11-14T19:06:33.651Z,66.03
2018-11-14T19:09:03.941Z,54.33
2018-11-14T19:11:34.407Z,55.30
2018-11-14T19:14:04.266Z,54.10
2018-11-14T19:16:35.147Z,70.72
2018-11-14T19:19:04.684Z,56.37
2018-11-14T19:21:35.126Z,49.47
2018-11-14T19:24:05.600Z,42.30
2018-11-14T19:26:35.715Z,39.60
2018-11-14T19:29:07.250Z,41.97
2018-11-14T19:31:38.067Z,47.57
2018-11-14T19:34:08.516Z,57.27
2018-11-14T19:36:40.336Z,45.97
2018-11-14T19:39:12.829Z,45.80
2018-11-14T19:41:43.107Z,47.17
2018-11-14T19:44:13.234Z,40.13
2018-11-14T19:46:44.199Z,35.33
2018-11-14T19:49:18.384Z,45.03
2018-11-14T19:51:50.536Z,52.77
2018-11-14T19:54:22.865Z,47.87
2018-11-14T19:56:54.099Z,48.90
2018-11-14T19:59:28.204Z,41.57
2018-11-14T20:02:00.763Z,44.20
2018-11-14T20:04:49.299Z,57.53
2018-11-14T20:07:27.517Z,64.00
2018-11-14T20:10:00.660Z,39.63
2018-11-14T20:21:44.884Z,44.47
2018-11-14T20:24:16.781Z,46.13
2018-11-14T20:26:48.435Z,34.40
2018-11-14T20:29:22.950Z,49.40
2018-11-14T20:31:53.972Z,42.20
2018-11-14T20:34:24.119Z,40.73
2018-11-14T20:36:54.104Z,37.13
2018-11-14T20:39:24.137Z,36.23
2018-11-14T20:41:54.651Z,39.33
2018-11-14T20:44:24.332Z,45.13
2018-11-14T20:46:53.989Z,37.90
2018-11-14T20:49:23.880Z,40.83
2018-11-14T20:51:53.651Z,57.73
2018-11-14T20:54:23.375Z,31.33
2018-11-14T20:56:53.422Z,29.60
2018-11-14T20:59:26.700Z,51.67
2018-11-14T21:01:57.108Z,49.73
2018-11-14T21:04:26.934Z,34.33
2018-11-14T21:06:56.565Z,41.33
2018-11-14T21:09:26.314Z,37.03
2018-11-14T21:11:56.324Z,33.23
2018-11-14T21:14:26.047Z,45.23
2018-11-14T21:16:56.084Z,41.23
2018-11-14T21:19:25.651Z,43.10
2018-11-14T21:21:55.059Z,31.73
2018-11-14T21:24:24.475Z,33.43
2018-11-14T21:26:53.854Z,35.33
2018-11-14T21:29:23.415Z,31.33
2018-11-14T21:31:52.900Z,44.07
2018-11-14T21:34:22.298Z,47.13
2018-11-14T21:36:52.324Z,44.63
2018-11-14T21:39:22.374Z,44.73
2018-11-14T21:41:52.152Z,40.23
2018-11-14T21:44:22.029Z,43.13
2018-11-14T21:46:52.112Z,46.77
2018-11-14T21:49:29.013Z,30.17
2018-11-14T21:51:59.831Z,26.70
2018-11-14T21:54:29.774Z,36.43
2018-11-14T21:56:59.562Z,43.65
2018-11-14T21:59:28.869Z,36.13
2018-11-14T22:01:58.285Z,23.40
2018-11-14T22:04:27.758Z,28.97
2018-11-14T22:06:57.110Z,28.40
2018-11-14T22:09:26.535Z,33.30
2018-11-14T22:11:56.045Z,30.80
2018-11-14T22:14:25.441Z,32.87
2018-11-14T22:16:55.051Z,23.30
2018-11-14T22:19:24.570Z,35.17
2018-11-14T22:21:58.877Z,37.63
2018-11-14T22:24:28.349Z,25.67
2018-11-14T22:26:57.810Z,39.10
2018-11-14T22:29:27.119Z,24.70
2018-11-14T22:31:56.637Z,32.90
2018-11-14T22:34:26.077Z,27.23
2018-11-14T22:36:55.431Z,30.82
2018-11-14T22:39:25.051Z,29.07
2018-11-14T22:41:54.419Z,28.37
2018-11-14T22:44:23.793Z,29.40
2018-11-14T22:46:54.921Z,26.00
2018-11-14T22:49:24.423Z,33.90
2018-11-14T22:51:54.022Z,30.17
2018-11-14T22:54:23.610Z,23.40
2018-11-14T22:56:52.979Z,27.53
2018-11-14T22:59:22.571Z,44.33
2018-11-14T23:01:51.930Z,22.00
2018-11-14T23:04:21.412Z,19.10
2018-11-14T23:06:50.774Z,22.97
2018-11-14T23:09:20.338Z,56.00
2018-11-14T23:11:49.639Z,59.83
2018-11-14T23:14:19.042Z,25.77
2018-11-14T23:16:48.549Z,52.40
2018-11-14T23:19:17.908Z,24.90
2018-11-14T23:21:47.365Z,33.07
2018-11-14T23:24:16.906Z,39.65
2018-11-14T23:26:46.253Z,29.70
2018-11-14T23:29:15.688Z,37.93
2018-11-14T23:31:45.132Z,27.80
2018-11-14T23:34:14.514Z,25.60
2018-11-14T23:36:44.049Z,28.37
2018-11-14T23:39:14.360Z,25.63
2018-11-14T23:41:43.744Z,32.60
2018-11-14T23:44:13.063Z,26.07
2018-11-14T23:46:42.470Z,31.63
2018-11-14T23:49:11.839Z,28.55
2018-11-14T23:51:41.179Z,24.93
2018-11-14T23:54:10.536Z,27.67
2018-11-14T23:56:39.989Z,22.33
2018-11-14T23:59:09.375Z,32.88
